Airfield :
LOGIN :

Register | Disclaimer

   EN    FR    IT 

 










Legend :    VFR   Marginal VFR   IFR   Intensive IFR   Very Intensive IFR
Visi :
Ceiling :
>= 8 km
>= 3000ft
5 to 8 km
1000 to 3000 ft
1500m to 5 km
500 to 1000 ft
800 to 1500m
200 to 500 ft
< 800m
< 200 ft
Symbols :   Thunderstorms  Fog  Heavy snow  Heavy precipitations  Wind > 20 kt
SIGMETs :     Misc.  Thunderstorms  Icing  Turbulence  Mountain Waves  Volcanic Ashes






- Airport Elevation : 348 ft
- IATA code : LDV


LFRJ - Landivisiau

CURRENT METAR :
  • 200300Z AUTO 21020KT 4500 RA BR OVC010/// ///TCU 10/09 Q0997

EXPIRED METARs :
  • 200230Z AUTO 20018KT 9999 OVC010 10/09 Q0997
  • 200200Z AUTO 20020KT 9999 OVC010 10/09 Q0998
  • 200130Z AUTO 20017KT 9999 -RA OVC008/// ///TCU 10/09 Q0998
  • 200100Z AUTO 21021KT 4500 -RA BR OVC006 10/09 Q0999
  • 200030Z AUTO 21018KT 3900 -RA BR OVC005 10/10 Q0999

Expired Forecast.



MET'MAP, your aeronautical weather chart ! - Copyright ORBIFLY December 2007 - Disclaimer

ORBIFLY MET'MAP TEAM :

Programming & Development : Alexandra Zaïnal
Concept & original design : Baudouin d'Aumeries
Assistance for programming : Marc-Olivier Méhu
Technical & hardware support : Manuel Goepfert

Contact : metmap@orbifly.com




SOURCES & CREDITS :

   NOAA